CheckWX is a tool to help pilots better visualize weather data.  It is not intended as a substitute for an official pre-flight weather briefing.

21:34:24 UTC

YWHA METAR
Whyalla Airport
Whyalla, Australia
Current

34 mins ago

YWHA 242100Z AUTO 32005KT 9999 // ////// 04/03 Q1023
Observed
May-24 @ 21:00 UTC
Wind
  • 320° at 5 KTS
Visibility
10,000+ meters
Cloud Levels
Temperature
C / 39°F
Dewpoint
C / 37°F
Humidity
93%
Altimeter
30.21" Hg
Pressure
1022.92 hPa
Previous

2 hours ago

YWHA 242000Z AUTO 32007KT 9999 // ////// 05/04 Q1023
Observed
May-24 @ 20:00 UTC
Wind
  • 320° at 7 KTS
Visibility
10,000+ meters
Cloud Levels
Temperature
C / 41°F
Dewpoint
C / 39°F
Humidity
93%
Altimeter
30.21" Hg
Pressure
1022.92 hPa
Previous

3 hours ago

YWHA 241900Z AUTO 02003KT 9999 // ////// 08/06 Q1023
Observed
May-24 @ 19:00 UTC
Wind
  • 020° at 3 KTS
Visibility
10,000+ meters
Cloud Levels
Temperature
C / 46°F
Dewpoint
C / 43°F
Humidity
87%
Altimeter
30.21" Hg
Pressure
1022.92 hPa